• Join FlightAware (Why Join?)
  • Login
  • US Flag 
03:50AM EDT


 

Airport Tracker/Info


-or-


 

Live Flight TrackerFlight Track Log ✈ G-EZBG ✈ 14-Apr-2013 ✈ LIRN / NAP - LIMC / MXP

Flight Track Log - Related Links

Times and Time Zones

All times are in EDT time to prevent confusion due to time zone crossing. See the G-EZBG flight status page for this flight to view local times or setup timezone preferences in your user account.

Time Position Orientation Groundspeed Altitude Reporting Facility
EDT Latitude Longitude Course Direction KTS MPH feet Rate Location/Type
10:41AM 41.4928 13.6418 321° Northwest  Level Estimated
10:42AM 41.5533 13.5763 321° Northwest  Level Estimated
10:43AM 41.6138 13.5106 321° Northwest  Level Estimated
10:44AM 41.6742 13.4448 321° Northwest  Level Estimated
10:45AM 41.7345 13.3788 321° Northwest  Level Estimated
10:46AM 41.7949 13.3128 321° Northwest  Level Estimated
10:47AM 41.8551 13.2466 321° Northwest  Level Estimated
10:48AM 41.9154 13.1803 321° Northwest  Level Estimated
10:49AM 41.9756 13.1139 321° Northwest  Level Estimated
10:50AM 42.0358 13.0473 321° Northwest  Level Estimated
10:51AM 42.0959 12.9806 321° Northwest  Level Estimated
10:52AM 42.1560 12.9138 321° Northwest  Level Estimated
10:53AM 42.2161 12.8469 320° Northwest  Level Estimated
10:53AM 40.8460 13.7820 320° Northwest 350 403 18,100  Level FlightAware
10:54AM 42.2761 12.7799 320° Northwest  Level Estimated
10:54AM 40.8840 13.6560 292° West 362 417 20,400  Level FlightAware
10:54AM 40.9110 13.5700 293° West 366 421 22,100 2,100 Climbing FlightAware
10:55AM 40.9370 13.4860 292° West 380 437 23,200 1,620 Climbing FlightAware
10:56AM 40.9720 13.3720 292° West 400 460 24,600 1,620 Climbing FlightAware
10:57AM 41.0020 13.2740 292° West 404 465 25,800 1,680 Climbing FlightAware
10:57AM 41.0310 13.1770 292° West 411 473 27,000 1,560 Climbing FlightAware
10:58AM 41.0740 13.0360 292° West 424 488 28,400 1,320 Climbing FlightAware
10:59AM 41.1040 12.9370 292° West 434 499 29,200 1,260 Climbing FlightAware
11:00AM 41.1380 12.8250 292° West 443 510 30,200 1,440 Climbing FlightAware
11:00AM 41.1580 12.7550 291° West 441 507 31,000 1,800 Climbing FlightAware
11:01AM 41.1820 12.6740 292° West 435 501 32,000 1,560 Climbing FlightAware
11:01AM 41.2110 12.5920 295° West 430 495 32,700 1,320 Climbing FlightAware
11:02AM 41.2670 12.4790 303° West 421 484 34,000 1,260 Climbing FlightAware
11:02AM 41.2790 12.4590 309° West 420 483 34,300 1,440 Climbing FlightAware
11:03AM 41.3530 12.3570 314° West 414 476 35,600 1,080 Climbing FlightAware
11:04AM 41.4000 12.2920 314° West 414 476 36,000 240 Climbing FlightAware
11:05AM 41.4710 12.1930 314° West 420 483 36,000  Level FlightAware
11:05AM 41.5400 12.0980 314° West 420 483 36,000  Level FlightAware
11:06AM 41.5930 12.0250 314° West 420 483 36,000  Level FlightAware
11:07AM 41.6290 11.9750 314° West 420 483 36,000  Level FlightAware
11:07AM 41.6870 11.8940 314° West 420 483 36,000  Level FlightAware
11:08AM 41.7480 11.8090 314° West 420 483 36,000  Level FlightAware
11:09AM 41.7930 11.7450 313° West 421 484 36,000  Level FlightAware
11:10AM 41.8690 11.6380 314° West 421 484 36,000  Level FlightAware
11:10AM 41.9130 11.5750 313° West 422 486 36,000  Level FlightAware
11:11AM 41.9540 11.5180 314° West 421 484 36,000  Level FlightAware
11:11AM 42.0170 11.4270 313° West 421 484 36,000  Level FlightAware
11:12AM 42.0460 11.3870 314° West 421 484 36,000  Level FlightAware
11:13AM 42.1080 11.2980 313° West 420 483 36,000  Level FlightAware
11:13AM 42.1790 11.1990 314° West 414 476 36,000  Level FlightAware
11:14AM 42.2270 11.1500 323° Northwest 417 480 36,000  Level FlightAware
11:15AM 42.2900 11.0860 323° Northwest 412 474 36,000  Level FlightAware
11:15AM 42.3400 11.0350 323° Northwest 412 474 36,000  Level FlightAware
11:16AM 42.4270 10.9460 323° Northwest 412 474 36,000  Level FlightAware
11:17AM 42.4990 10.8720 323° Northwest 419 482 36,000  Level FlightAware
11:17AM 42.5370 10.8330 323° Northwest 419 482 36,000  Level FlightAware
11:18AM 42.6300 10.7380 323° Northwest 420 483 36,000  Level FlightAware
11:19AM 42.6910 10.6750 323° Northwest 421 484 36,000  Level FlightAware
11:20AM 42.7640 10.5990 323° Northwest 423 487 36,000  Level FlightAware
11:20AM 42.8250 10.5360 323° Northwest 424 488 36,000  Level FlightAware
11:21AM 42.8780 10.4810 323° Northwest 424 488 36,000  Level FlightAware
11:22AM 42.9320 10.4260 323° Northwest 424 488 36,000  Level FlightAware
11:22AM 42.9930 10.3710 327° Northwest 423 487 36,000  Level FlightAware
11:23AM 43.0620 10.3080 326° Northwest 424 488 36,000  Level FlightAware
11:24AM 43.1400 10.2350 326° Northwest 424 488 36,000  Level FlightAware
11:24AM 43.2040 10.1740 325° Northwest 424 488 36,000 -420 Level FlightAware
11:25AM 43.2690 10.1140 326° Northwest 422 486 35,500 -900 Descending FlightAware
11:25AM 43.3160 10.0700 326° Northwest 422 486 35,000 -1,020 Descending FlightAware
11:26AM 43.3720 10.0170 325° Northwest 425 489 34,400 -1,380 Descending FlightAware
11:27AM 43.4440 9.9490 326° Northwest 429 494 33,200 -1,920 Descending FlightAware
11:27AM 43.5120 9.8840 325° Northwest 432 497 31,700 -2,160 Descending FlightAware
11:28AM 43.5830 9.8160 325° Northwest 437 503 30,200 -1,320 Descending FlightAware
11:29AM 43.6440 9.7590 326° Northwest 438 504 30,000 -240 Descending FlightAware
11:29AM 43.6950 9.7100 325° Northwest 435 501 30,000  Level FlightAware
11:30AM 43.7390 9.6670 325° Northwest 435 501 30,000  Level FlightAware
11:30AM 43.8100 9.6000 326° Northwest 435 501 30,000 -720 Level FlightAware
11:31AM 43.8570 9.5550 325° Northwest 428 493 29,200 -2,520 Descending FlightAware
11:32AM 43.9220 9.4920 325° Northwest 426 490 27,100 -2,880 Descending FlightAware
11:32AM 43.9780 9.4390 326° Northwest 413 475 25,600 -2,940 Descending FlightAware
11:33AM 44.0420 9.4120 343° North 411 473 23,700 -2,880 Descending FlightAware
11:33AM 44.1130 9.3890 347° North 405 466 22,000 -2,040 Descending FlightAware
11:34AM 44.2110 9.3560 346° North 407 468 20,700 -1,380 Descending FlightAware
11:35AM 44.2800 9.3330 347° North 402 463 20,000 -780 Descending FlightAware
11:36AM 44.3690 9.2980 344° North 396 456 19,600 -720 Descending FlightAware
11:36AM 44.4310 9.2660 340° North 389 448 19,000 -1,020 Descending FlightAware
11:37AM 44.5030 9.2320 341° North 379 436 18,300 -1,020 Descending FlightAware
11:38AM 44.5810 9.1960 342° North 381 438 17,500 -1,080 Descending FlightAware
11:39AM 44.6460 9.1650 341° North 376 433 16,800 -1,080 Descending FlightAware
11:39AM 44.6960 9.1410 341° North 376 433 16,300 -840 Descending FlightAware
11:40AM 44.7430 9.1190 342° North 373 429 16,000 -660 Descending FlightAware
11:40AM 44.8300 9.0780 342° North 347 399 15,400 -1,620 Descending FlightAware
11:41AM 44.8920 9.0490 342° North 356 410 13,500 -2,820 Descending FlightAware
11:42AM 44.9460 9.0230 341° North 354 407 11,900 -2,580 Descending FlightAware
11:42AM 45.0040 8.9960 342° North 349 402 10,500 -2,400 Descending FlightAware
11:43AM 45.0260 8.9850 341° North 348 400 9,900 -2,400 Descending FlightAware
11:43AM 45.0540 8.9720 342° North 347 399 9,100 -1,920 Descending FlightAware
11:43AM 45.0790 8.9600 341° North 334 384 8,800 -900 Descending FlightAware
11:44AM 45.1130 8.9430 341° North 313 360 8,500 -1,020 Descending FlightAware
11:44AM 45.1530 8.9240 341° North 303 349 7,900 -1,440 Descending FlightAware
11:44AM 45.1810 8.9110 342° North 305 351 7,300 -1,140 Descending FlightAware
11:45AM 45.2400 8.8820 341° North 275 316 6,700 -780 Descending FlightAware
11:46AM 45.2680 8.8690 342° North 262 302 6,400 -900 Descending FlightAware
11:46AM 45.2980 8.8540 341° North 251 289 5,900 -1,200 Descending FlightAware
11:46AM 45.3230 8.8420 341° North 249 287 5,400 -1,560 Descending FlightAware
11:47AM 45.3370 8.8350 341° North 249 287 5,000 -1,740 Descending FlightAware
11:47AM 45.3610 8.8230 341° North 255 293 4,400 -1,200 Descending FlightAware
11:47AM 45.3830 8.8120 341° North 240 276 4,200 -540 Descending FlightAware
11:48AM 45.4060 8.7940 331° Northwest 219 252 4,000 -240 Descending FlightAware
11:48AM 45.4310 8.7790 337° Northwest 196 226 4,000 -480 Level FlightAware
11:49AM 45.4540 8.7720 348° North 186 214 3,600 -960 Descending FlightAware
11:49AM 45.4740 8.7660 348° North 183 211 3,200 -1,080 Descending FlightAware
11:49AM 45.4900 8.7610 348° North 180 207 2,800 -1,080 Descending FlightAware
11:50AM 45.5090 8.7560 350° North 175 201 2,400 -960 Descending FlightAware
11:50AM 45.5260 8.7520 351° North 172 198 2,100 -900 Descending FlightAware
11:50AM 45.5390 8.7480 348° North 166 191 1,900 -900 Descending FlightAware
11:51AM 45.5530 8.7440 349° North 149 171 1,600 -840 Descending FlightAware
11:51AM 45.5680 8.7400 349° North 136 157 1,300 -360 Descending FlightAware
11:52AM 45.5820 8.7360 349° North 136 157 1,300  Level FlightAware
11:54AM 45.6306 8.7281 354° North  Level Estimated
11:55AM 45.6306 8.7281 170° South  Level Estimated
11:56AM 45.6306 8.7281 170° South  Level Estimated
11:57AM 45.6306 8.7281 170° South  Level Estimated
11:58AM 45.6306 8.7281 170° South  Level Estimated
11:59AM 45.6306 8.7281 170° South  Level Estimated